sensor_id;sensor_type;location;lat;lon;timestamp;temperature;humidity
16402;DHT22;8310;44.626;11.176;2023-05-27T00:02:22;23.20;57.30
16402;DHT22;8310;44.626;11.176;2023-05-27T00:04:50;23.10;57.10
16402;DHT22;8310;44.626;11.176;2023-05-27T00:07:17;23.10;57.30
16402;DHT22;8310;44.626;11.176;2023-05-27T00:09:44;23.00;57.10
16402;DHT22;8310;44.626;11.176;2023-05-27T00:12:12;23.00;57.70
16402;DHT22;8310;44.626;11.176;2023-05-27T00:14:39;23.00;57.10
16402;DHT22;8310;44.626;11.176;2023-05-27T00:17:08;22.90;57.20
16402;DHT22;8310;44.626;11.176;2023-05-27T00:19:38;22.90;57.30
16402;DHT22;8310;44.626;11.176;2023-05-27T00:22:06;22.90;57.40
16402;DHT22;8310;44.626;11.176;2023-05-27T00:24:33;22.90;57.40
16402;DHT22;8310;44.626;11.176;2023-05-27T00:27:00;23.00;57.50
16402;DHT22;8310;44.626;11.176;2023-05-27T00:29:28;23.00;57.50
16402;DHT22;8310;44.626;11.176;2023-05-27T00:31:55;23.00;57.50
16402;DHT22;8310;44.626;11.176;2023-05-27T00:34:23;23.00;57.50
16402;DHT22;8310;44.626;11.176;2023-05-27T00:36:51;23.00;57.50
16402;DHT22;8310;44.626;11.176;2023-05-27T00:39:19;23.00;57.50
16402;DHT22;8310;44.626;11.176;2023-05-27T00:41:49;23.00;57.60
16402;DHT22;8310;44.626;11.176;2023-05-27T00:44:17;23.00;57.60
16402;DHT22;8310;44.626;11.176;2023-05-27T00:46:44;23.00;57.60
16402;DHT22;8310;44.626;11.176;2023-05-27T00:49:13;23.00;57.60
16402;DHT22;8310;44.626;11.176;2023-05-27T00:51:42;23.00;57.70
16402;DHT22;8310;44.626;11.176;2023-05-27T00:54:10;23.00;57.70
16402;DHT22;8310;44.626;11.176;2023-05-27T00:56:38;23.00;57.70
16402;DHT22;8310;44.626;11.176;2023-05-27T00:59:06;23.00;57.80
16402;DHT22;8310;44.626;11.176;2023-05-27T01:01:33;23.00;57.80
16402;DHT22;8310;44.626;11.176;2023-05-27T01:04:02;23.10;57.80
16402;DHT22;8310;44.626;11.176;2023-05-27T01:06:33;23.10;57.80
16402;DHT22;8310;44.626;11.176;2023-05-27T01:09:05;23.10;57.80
16402;DHT22;8310;44.626;11.176;2023-05-27T01:11:38;23.10;57.80
16402;DHT22;8310;44.626;11.176;2023-05-27T01:14:07;23.10;57.70
16402;DHT22;8310;44.626;11.176;2023-05-27T01:16:36;23.10;57.80
16402;DHT22;8310;44.626;11.176;2023-05-27T01:19:05;23.10;57.80
16402;DHT22;8310;44.626;11.176;2023-05-27T01:21:35;23.10;57.80
16402;DHT22;8310;44.626;11.176;2023-05-27T01:24:07;23.10;57.80
16402;DHT22;8310;44.626;11.176;2023-05-27T01:26:34;23.00;57.80
16402;DHT22;8310;44.626;11.176;2023-05-27T01:29:01;23.10;57.80
16402;DHT22;8310;44.626;11.176;2023-05-27T01:31:30;23.00;57.80
16402;DHT22;8310;44.626;11.176;2023-05-27T01:33:59;23.00;57.90
16402;DHT22;8310;44.626;11.176;2023-05-27T01:36:28;23.00;57.90
16402;DHT22;8310;44.626;11.176;2023-05-27T01:38:57;23.10;58.00
16402;DHT22;8310;44.626;11.176;2023-05-27T01:41:27;23.10;58.10
16402;DHT22;8310;44.626;11.176;2023-05-27T01:43:55;23.10;58.00
16402;DHT22;8310;44.626;11.176;2023-05-27T01:46:23;23.10;58.00
16402;DHT22;8310;44.626;11.176;2023-05-27T01:48:50;23.10;58.20
16402;DHT22;8310;44.626;11.176;2023-05-27T01:51:17;23.10;57.80
16402;DHT22;8310;44.626;11.176;2023-05-27T01:53:44;23.00;57.70
16402;DHT22;8310;44.626;11.176;2023-05-27T01:56:11;23.00;57.70
16402;DHT22;8310;44.626;11.176;2023-05-27T01:58:41;22.90;57.60
16402;DHT22;8310;44.626;11.176;2023-05-27T02:01:09;22.90;57.60
16402;DHT22;8310;44.626;11.176;2023-05-27T02:03:36;22.80;57.50
16402;DHT22;8310;44.626;11.176;2023-05-27T02:06:04;22.70;57.50
16402;DHT22;8310;44.626;11.176;2023-05-27T02:08:31;22.60;57.40
16402;DHT22;8310;44.626;11.176;2023-05-27T02:10:59;22.60;57.50
16402;DHT22;8310;44.626;11.176;2023-05-27T02:13:26;22.50;57.50
16402;DHT22;8310;44.626;11.176;2023-05-27T02:15:55;22.40;57.50
16402;DHT22;8310;44.626;11.176;2023-05-27T02:18:23;22.30;57.60
16402;DHT22;8310;44.626;11.176;2023-05-27T02:20:51;22.20;57.40
16402;DHT22;8310;44.626;11.176;2023-05-27T02:23:18;22.10;57.30
16402;DHT22;8310;44.626;11.176;2023-05-27T02:25:46;22.10;57.40
16402;DHT22;8310;44.626;11.176;2023-05-27T02:28:13;22.00;57.70
16402;DHT22;8310;44.626;11.176;2023-05-27T02:30:41;21.90;57.90
16402;DHT22;8310;44.626;11.176;2023-05-27T02:33:09;21.80;57.70
16402;DHT22;8310;44.626;11.176;2023-05-27T02:35:37;21.80;57.50
16402;DHT22;8310;44.626;11.176;2023-05-27T02:38:04;21.70;57.60
16402;DHT22;8310;44.626;11.176;2023-05-27T02:40:32;21.70;57.70
16402;DHT22;8310;44.626;11.176;2023-05-27T02:42:59;21.70;57.80
16402;DHT22;8310;44.626;11.176;2023-05-27T02:45:26;21.70;57.70
16402;DHT22;8310;44.626;11.176;2023-05-27T02:47:54;21.60;57.60
16402;DHT22;8310;44.626;11.176;2023-05-27T02:50:23;21.60;57.70
16402;DHT22;8310;44.626;11.176;2023-05-27T02:52:50;21.60;57.80
16402;DHT22;8310;44.626;11.176;2023-05-27T02:55:20;21.60;57.80
16402;DHT22;8310;44.626;11.176;2023-05-27T02:57:48;21.60;57.80
16402;DHT22;8310;44.626;11.176;2023-05-27T03:00:15;21.60;57.80
16402;DHT22;8310;44.626;11.176;2023-05-27T03:02:42;21.60;57.90
16402;DHT22;8310;44.626;11.176;2023-05-27T03:05:10;21.60;57.90
16402;DHT22;8310;44.626;11.176;2023-05-27T03:07:39;21.70;58.00
16402;DHT22;8310;44.626;11.176;2023-05-27T03:10:06;21.60;57.90
16402;DHT22;8310;44.626;11.176;2023-05-27T03:12:34;21.60;57.90
16402;DHT22;8310;44.626;11.176;2023-05-27T03:15:01;21.60;57.90
16402;DHT22;8310;44.626;11.176;2023-05-27T03:17:29;21.60;58.10
16402;DHT22;8310;44.626;11.176;2023-05-27T03:19:56;21.60;58.10
16402;DHT22;8310;44.626;11.176;2023-05-27T03:22:24;21.60;58.20
16402;DHT22;8310;44.626;11.176;2023-05-27T03:24:53;21.60;58.20
16402;DHT22;8310;44.626;11.176;2023-05-27T03:27:21;21.70;58.20
16402;DHT22;8310;44.626;11.176;2023-05-27T03:29:48;21.70;58.30
16402;DHT22;8310;44.626;11.176;2023-05-27T03:32:19;21.70;58.20
16402;DHT22;8310;44.626;11.176;2023-05-27T03:34:46;21.80;58.30
16402;DHT22;8310;44.626;11.176;2023-05-27T03:37:13;21.70;58.20
16402;DHT22;8310;44.626;11.176;2023-05-27T03:39:40;21.80;58.40
16402;DHT22;8310;44.626;11.176;2023-05-27T03:42:10;21.80;58.40
16402;DHT22;8310;44.626;11.176;2023-05-27T03:44:36;21.80;58.40
16402;DHT22;8310;44.626;11.176;2023-05-27T03:47:04;21.80;58.30
16402;DHT22;8310;44.626;11.176;2023-05-27T03:49:32;21.80;58.30
16402;DHT22;8310;44.626;11.176;2023-05-27T03:51:59;21.80;58.40
16402;DHT22;8310;44.626;11.176;2023-05-27T03:54:27;21.80;58.40
16402;DHT22;8310;44.626;11.176;2023-05-27T03:56:54;21.80;58.40
16402;DHT22;8310;44.626;11.176;2023-05-27T03:59:22;21.80;58.40
16402;DHT22;8310;44.626;11.176;2023-05-27T04:01:50;21.80;58.40
16402;DHT22;8310;44.626;11.176;2023-05-27T04:04:17;21.80;58.40
16402;DHT22;8310;44.626;11.176;2023-05-27T04:06:44;21.80;59.00
16402;DHT22;8310;44.626;11.176;2023-05-27T04:09:11;21.80;58.40
16402;DHT22;8310;44.626;11.176;2023-05-27T04:11:39;21.80;58.40
16402;DHT22;8310;44.626;11.176;2023-05-27T04:14:07;21.80;58.50
16402;DHT22;8310;44.626;11.176;2023-05-27T04:16:36;21.80;58.40
16402;DHT22;8310;44.626;11.176;2023-05-27T04:19:06;21.80;58.40
16402;DHT22;8310;44.626;11.176;2023-05-27T04:21:33;21.80;58.40
16402;DHT22;8310;44.626;11.176;2023-05-27T04:24:01;21.80;58.40
16402;DHT22;8310;44.626;11.176;2023-05-27T04:26:28;21.80;58.40
16402;DHT22;8310;44.626;11.176;2023-05-27T04:28:56;21.70;58.40
16402;DHT22;8310;44.626;11.176;2023-05-27T04:31:24;21.70;58.50
16402;DHT22;8310;44.626;11.176;2023-05-27T04:33:55;21.70;58.50
16402;DHT22;8310;44.626;11.176;2023-05-27T04:36:22;21.70;58.60
16402;DHT22;8310;44.626;11.176;2023-05-27T04:38:50;21.70;58.50
16402;DHT22;8310;44.626;11.176;2023-05-27T04:41:17;21.70;58.50
16402;DHT22;8310;44.626;11.176;2023-05-27T04:43:52;21.70;59.50
16402;DHT22;8310;44.626;11.176;2023-05-27T04:46:19;21.70;58.70
16402;DHT22;8310;44.626;11.176;2023-05-27T04:48:47;21.70;58.90
16402;DHT22;8310;44.626;11.176;2023-05-27T04:51:17;21.70;59.40
16402;DHT22;8310;44.626;11.176;2023-05-27T04:53:45;21.70;58.90
16402;DHT22;8310;44.626;11.176;2023-05-27T04:56:13;21.60;58.80
16402;DHT22;8310;44.626;11.176;2023-05-27T04:58:42;21.70;58.90
16402;DHT22;8310;44.626;11.176;2023-05-27T05:01:12;21.70;59.00
16402;DHT22;8310;44.626;11.176;2023-05-27T05:03:42;21.70;59.00
16402;DHT22;8310;44.626;11.176;2023-05-27T05:06:21;21.70;59.20
16402;DHT22;8310;44.626;11.176;2023-05-27T05:08:49;21.70;59.10
16402;DHT22;8310;44.626;11.176;2023-05-27T05:11:17;21.70;59.70
16402;DHT22;8310;44.626;11.176;2023-05-27T05:13:44;21.70;61.70
16402;DHT22;8310;44.626;11.176;2023-05-27T05:16:12;21.70;59.40
16402;DHT22;8310;44.626;11.176;2023-05-27T05:18:39;21.70;59.20
16402;DHT22;8310;44.626;11.176;2023-05-27T05:21:07;21.70;59.30
16402;DHT22;8310;44.626;11.176;2023-05-27T05:23:36;21.70;59.30
16402;DHT22;8310;44.626;11.176;2023-05-27T05:26:05;21.80;59.30
16402;DHT22;8310;44.626;11.176;2023-05-27T05:28:33;21.80;59.40
16402;DHT22;8310;44.626;11.176;2023-05-27T05:31:01;21.90;59.50
16402;DHT22;8310;44.626;11.176;2023-05-27T05:33:29;21.90;59.60
16402;DHT22;8310;44.626;11.176;2023-05-27T05:35:56;22.00;59.90
16402;DHT22;8310;44.626;11.176;2023-05-27T05:38:24;22.10;59.70
16402;DHT22;8310;44.626;11.176;2023-05-27T05:40:52;22.10;59.60
16402;DHT22;8310;44.626;11.176;2023-05-27T05:43:19;22.10;59.70
16402;DHT22;8310;44.626;11.176;2023-05-27T05:45:47;22.20;59.70
16402;DHT22;8310;44.626;11.176;2023-05-27T05:48:14;22.20;59.70
16402;DHT22;8310;44.626;11.176;2023-05-27T05:50:42;22.20;59.60
16402;DHT22;8310;44.626;11.176;2023-05-27T05:53:10;22.30;59.60
16402;DHT22;8310;44.626;11.176;2023-05-27T05:55:37;22.20;59.50
16402;DHT22;8310;44.626;11.176;2023-05-27T05:58:06;22.20;59.40
16402;DHT22;8310;44.626;11.176;2023-05-27T06:00:34;22.20;59.50
16402;DHT22;8310;44.626;11.176;2023-05-27T06:03:02;22.20;59.20
16402;DHT22;8310;44.626;11.176;2023-05-27T06:05:29;22.20;59.30
16402;DHT22;8310;44.626;11.176;2023-05-27T06:07:56;22.10;59.20
16402;DHT22;8310;44.626;11.176;2023-05-27T06:10:24;22.10;59.20
16402;DHT22;8310;44.626;11.176;2023-05-27T06:12:51;22.00;59.10
16402;DHT22;8310;44.626;11.176;2023-05-27T06:15:20;22.00;59.50
16402;DHT22;8310;44.626;11.176;2023-05-27T06:17:48;21.90;59.10
16402;DHT22;8310;44.626;11.176;2023-05-27T06:20:15;21.90;59.10
16402;DHT22;8310;44.626;11.176;2023-05-27T06:22:42;21.80;59.10
16402;DHT22;8310;44.626;11.176;2023-05-27T06:25:09;21.80;59.70
16402;DHT22;8310;44.626;11.176;2023-05-27T06:27:36;21.80;59.40
16402;DHT22;8310;44.626;11.176;2023-05-27T06:30:04;21.70;60.30
16402;DHT22;8310;44.626;11.176;2023-05-27T06:32:34;21.60;59.70
16402;DHT22;8310;44.626;11.176;2023-05-27T06:35:05;21.60;59.70
16402;DHT22;8310;44.626;11.176;2023-05-27T06:37:32;21.60;60.90
16402;DHT22;8310;44.626;11.176;2023-05-27T06:39:59;21.50;59.50
16402;DHT22;8310;44.626;11.176;2023-05-27T06:42:26;21.50;59.40
16402;DHT22;8310;44.626;11.176;2023-05-27T06:44:53;21.50;59.40
16402;DHT22;8310;44.626;11.176;2023-05-27T06:47:21;21.60;59.80
16402;DHT22;8310;44.626;11.176;2023-05-27T06:49:50;21.60;59.80
16402;DHT22;8310;44.626;11.176;2023-05-27T06:52:17;21.60;59.60
16402;DHT22;8310;44.626;11.176;2023-05-27T06:54:44;21.60;59.50
16402;DHT22;8310;44.626;11.176;2023-05-27T06:57:12;21.60;59.60
16402;DHT22;8310;44.626;11.176;2023-05-27T06:59:39;21.60;59.50
16402;DHT22;8310;44.626;11.176;2023-05-27T07:02:07;21.60;59.60
16402;DHT22;8310;44.626;11.176;2023-05-27T07:04:35;21.60;59.60
16402;DHT22;8310;44.626;11.176;2023-05-27T07:07:04;21.60;60.20
16402;DHT22;8310;44.626;11.176;2023-05-27T07:09:31;21.60;61.20
16402;DHT22;8310;44.626;11.176;2023-05-27T07:11:58;21.70;59.80
16402;DHT22;8310;44.626;11.176;2023-05-27T07:14:25;21.70;60.10
16402;DHT22;8310;44.626;11.176;2023-05-27T07:16:53;21.80;60.00
16402;DHT22;8310;44.626;11.176;2023-05-27T07:19:21;21.90;60.20
16402;DHT22;8310;44.626;11.176;2023-05-27T07:21:48;22.00;60.30
16402;DHT22;8310;44.626;11.176;2023-05-27T07:24:17;22.00;60.30
16402;DHT22;8310;44.626;11.176;2023-05-27T07:26:44;22.10;60.30
16402;DHT22;8310;44.626;11.176;2023-05-27T07:29:11;22.20;60.30
16402;DHT22;8310;44.626;11.176;2023-05-27T07:31:39;22.20;60.30
16402;DHT22;8310;44.626;11.176;2023-05-27T07:34:06;22.30;60.50
16402;DHT22;8310;44.626;11.176;2023-05-27T07:36:35;22.30;60.50
16402;DHT22;8310;44.626;11.176;2023-05-27T07:39:01;22.40;60.50
16402;DHT22;8310;44.626;11.176;2023-05-27T07:41:31;22.50;60.40
16402;DHT22;8310;44.626;11.176;2023-05-27T07:43:59;22.50;61.40
16402;DHT22;8310;44.626;11.176;2023-05-27T07:46:26;22.50;60.60
16402;DHT22;8310;44.626;11.176;2023-05-27T07:48:54;22.60;60.70
16402;DHT22;8310;44.626;11.176;2023-05-27T07:51:20;22.60;60.80
16402;DHT22;8310;44.626;11.176;2023-05-27T07:53:48;22.70;61.00
16402;DHT22;8310;44.626;11.176;2023-05-27T07:56:15;22.90;61.20
16402;DHT22;8310;44.626;11.176;2023-05-27T07:58:44;23.00;61.40
16402;DHT22;8310;44.626;11.176;2023-05-27T08:01:12;23.10;61.50
16402;DHT22;8310;44.626;11.176;2023-05-27T08:03:39;23.20;61.60
16402;DHT22;8310;44.626;11.176;2023-05-27T08:06:07;23.40;61.70
16402;DHT22;8310;44.626;11.176;2023-05-27T08:08:34;23.50;62.10
16402;DHT22;8310;44.626;11.176;2023-05-27T08:11:02;23.70;62.70
16402;DHT22;8310;44.626;11.176;2023-05-27T08:13:28;24.00;63.00
16402;DHT22;8310;44.626;11.176;2023-05-27T08:15:57;24.20;62.90
16402;DHT22;8310;44.626;11.176;2023-05-27T08:18:28;24.40;63.10
16402;DHT22;8310;44.626;11.176;2023-05-27T08:20:55;24.70;63.40
16402;DHT22;8310;44.626;11.176;2023-05-27T08:23:22;24.90;63.10
16402;DHT22;8310;44.626;11.176;2023-05-27T08:25:50;25.00;62.80
16402;DHT22;8310;44.626;11.176;2023-05-27T08:28:18;25.10;62.50
16402;DHT22;8310;44.626;11.176;2023-05-27T08:30:45;25.20;62.60
16402;DHT22;8310;44.626;11.176;2023-05-27T08:33:14;25.20;62.20
16402;DHT22;8310;44.626;11.176;2023-05-27T08:35:41;25.20;62.10
16402;DHT22;8310;44.626;11.176;2023-05-27T08:38:09;25.30;62.30
16402;DHT22;8310;44.626;11.176;2023-05-27T08:40:36;25.30;62.20
16402;DHT22;8310;44.626;11.176;2023-05-27T08:43:05;25.40;62.30
16402;DHT22;8310;44.626;11.176;2023-05-27T08:45:33;25.40;62.10
16402;DHT22;8310;44.626;11.176;2023-05-27T08:48:00;25.40;61.90
16402;DHT22;8310;44.626;11.176;2023-05-27T08:50:29;25.40;61.80
16402;DHT22;8310;44.626;11.176;2023-05-27T08:52:57;25.50;61.90
16402;DHT22;8310;44.626;11.176;2023-05-27T08:55:24;25.50;61.90
16402;DHT22;8310;44.626;11.176;2023-05-27T08:57:54;25.50;61.70
16402;DHT22;8310;44.626;11.176;2023-05-27T09:00:22;25.50;61.50
16402;DHT22;8310;44.626;11.176;2023-05-27T09:02:49;25.50;61.40
16402;DHT22;8310;44.626;11.176;2023-05-27T09:05:17;25.50;61.60
16402;DHT22;8310;44.626;11.176;2023-05-27T09:07:46;25.60;61.90
16402;DHT22;8310;44.626;11.176;2023-05-27T09:10:13;25.60;62.00
16402;DHT22;8310;44.626;11.176;2023-05-27T09:12:42;25.80;62.60
16402;DHT22;8310;44.626;11.176;2023-05-27T09:15:09;26.00;63.00
16402;DHT22;8310;44.626;11.176;2023-05-27T09:17:39;26.20;63.20
16402;DHT22;8310;44.626;11.176;2023-05-27T09:20:07;26.40;63.20
16402;DHT22;8310;44.626;11.176;2023-05-27T09:22:36;26.50;63.10
16402;DHT22;8310;44.626;11.176;2023-05-27T09:25:06;26.70;63.30
16402;DHT22;8310;44.626;11.176;2023-05-27T09:27:34;26.80;63.20
16402;DHT22;8310;44.626;11.176;2023-05-27T09:30:08;27.00;63.20
16402;DHT22;8310;44.626;11.176;2023-05-27T09:32:36;27.00;63.10
16402;DHT22;8310;44.626;11.176;2023-05-27T09:35:05;27.10;63.00
16402;DHT22;8310;44.626;11.176;2023-05-27T09:37:33;27.20;62.90
16402;DHT22;8310;44.626;11.176;2023-05-27T09:40:04;27.30;63.00
16402;DHT22;8310;44.626;11.176;2023-05-27T09:42:39;27.30;63.00
16402;DHT22;8310;44.626;11.176;2023-05-27T09:45:07;27.40;63.00
16402;DHT22;8310;44.626;11.176;2023-05-27T09:47:37;27.50;63.20
16402;DHT22;8310;44.626;11.176;2023-05-27T09:50:06;27.60;63.20
16402;DHT22;8310;44.626;11.176;2023-05-27T09:52:35;27.70;62.90
16402;DHT22;8310;44.626;11.176;2023-05-27T09:55:05;27.70;62.30
16402;DHT22;8310;44.626;11.176;2023-05-27T09:57:33;27.60;61.80
16402;DHT22;8310;44.626;11.176;2023-05-27T10:02:47;27.50;62.30
16402;DHT22;8310;44.626;11.176;2023-05-27T10:05:15;27.60;62.60
16402;DHT22;8310;44.626;11.176;2023-05-27T10:07:45;27.70;62.80
16402;DHT22;8310;44.626;11.176;2023-05-27T10:10:14;27.70;62.60
16402;DHT22;8310;44.626;11.176;2023-05-27T10:12:42;27.80;62.70
16402;DHT22;8310;44.626;11.176;2023-05-27T10:15:20;27.90;63.00
16402;DHT22;8310;44.626;11.176;2023-05-27T10:17:52;28.10;63.40
16402;DHT22;8310;44.626;11.176;2023-05-27T10:20:26;28.20;63.60
16402;DHT22;8310;44.626;11.176;2023-05-27T10:22:54;28.40;63.70
16402;DHT22;8310;44.626;11.176;2023-05-27T10:25:22;28.60;63.50
16402;DHT22;8310;44.626;11.176;2023-05-27T10:27:50;28.70;63.10
16402;DHT22;8310;44.626;11.176;2023-05-27T10:30:17;28.70;62.90
16402;DHT22;8310;44.626;11.176;2023-05-27T10:32:44;28.80;63.00
16402;DHT22;8310;44.626;11.176;2023-05-27T10:35:16;28.90;62.90
16402;DHT22;8310;44.626;11.176;2023-05-27T10:37:45;28.90;62.50
16402;DHT22;8310;44.626;11.176;2023-05-27T10:40:13;28.90;62.60
16402;DHT22;8310;44.626;11.176;2023-05-27T10:42:57;29.00;63.00
16402;DHT22;8310;44.626;11.176;2023-05-27T10:45:30;29.10;63.00
16402;DHT22;8310;44.626;11.176;2023-05-27T10:47:58;29.20;63.20
16402;DHT22;8310;44.626;11.176;2023-05-27T10:50:30;29.30;63.20
16402;DHT22;8310;44.626;11.176;2023-05-27T10:52:59;29.40;63.40
16402;DHT22;8310;44.626;11.176;2023-05-27T10:55:26;29.50;63.30
16402;DHT22;8310;44.626;11.176;2023-05-27T10:57:54;29.60;63.20
16402;DHT22;8310;44.626;11.176;2023-05-27T11:00:21;29.70;63.10
16402;DHT22;8310;44.626;11.176;2023-05-27T11:02:51;29.70;63.10
16402;DHT22;8310;44.626;11.176;2023-05-27T11:05:19;29.80;62.90
16402;DHT22;8310;44.626;11.176;2023-05-27T11:07:48;29.80;62.90
16402;DHT22;8310;44.626;11.176;2023-05-27T11:10:15;29.80;62.50
16402;DHT22;8310;44.626;11.176;2023-05-27T11:12:43;29.80;62.60
16402;DHT22;8310;44.626;11.176;2023-05-27T11:15:10;29.90;62.80
16402;DHT22;8310;44.626;11.176;2023-05-27T11:17:37;29.90;62.90
16402;DHT22;8310;44.626;11.176;2023-05-27T11:20:04;30.00;62.20
16402;DHT22;8310;44.626;11.176;2023-05-27T11:22:32;30.00;62.10
16402;DHT22;8310;44.626;11.176;2023-05-27T11:25:04;30.00;62.10
16402;DHT22;8310;44.626;11.176;2023-05-27T11:27:35;30.00;62.40
16402;DHT22;8310;44.626;11.176;2023-05-27T11:30:06;30.00;62.40
16402;DHT22;8310;44.626;11.176;2023-05-27T11:32:35;30.00;62.10
16402;DHT22;8310;44.626;11.176;2023-05-27T11:35:02;30.00;62.20
16402;DHT22;8310;44.626;11.176;2023-05-27T11:37:31;30.00;62.20
16402;DHT22;8310;44.626;11.176;2023-05-27T11:39:58;30.10;61.20
16402;DHT22;8310;44.626;11.176;2023-05-27T11:42:27;29.90;60.50
16402;DHT22;8310;44.626;11.176;2023-05-27T11:44:55;29.80;60.70
16402;DHT22;8310;44.626;11.176;2023-05-27T11:47:24;29.70;61.10
16402;DHT22;8310;44.626;11.176;2023-05-27T11:49:52;29.70;61.00
16402;DHT22;8310;44.626;11.176;2023-05-27T11:52:19;29.80;61.30
16402;DHT22;8310;44.626;11.176;2023-05-27T11:54:49;29.80;58.60
16402;DHT22;8310;44.626;11.176;2023-05-27T11:57:17;29.70;60.20
16402;DHT22;8310;44.626;11.176;2023-05-27T11:59:46;29.70;59.00
16402;DHT22;8310;44.626;11.176;2023-05-27T12:02:13;29.60;59.60
16402;DHT22;8310;44.626;11.176;2023-05-27T12:04:41;29.50;59.40
16402;DHT22;8310;44.626;11.176;2023-05-27T12:07:09;29.40;60.00
16402;DHT22;8310;44.626;11.176;2023-05-27T12:09:36;29.40;60.20
16402;DHT22;8310;44.626;11.176;2023-05-27T12:12:04;29.40;60.50
16402;DHT22;8310;44.626;11.176;2023-05-27T12:14:31;29.50;61.10
16402;DHT22;8310;44.626;11.176;2023-05-27T12:17:00;29.70;61.60
16402;DHT22;8310;44.626;11.176;2023-05-27T12:19:28;29.80;61.50
16402;DHT22;8310;44.626;11.176;2023-05-27T12:21:58;30.00;61.30
16402;DHT22;8310;44.626;11.176;2023-05-27T12:24:26;30.10;61.50
16402;DHT22;8310;44.626;11.176;2023-05-27T12:26:53;30.10;61.80
16402;DHT22;8310;44.626;11.176;2023-05-27T12:29:21;30.20;60.90
16402;DHT22;8310;44.626;11.176;2023-05-27T12:31:49;30.30;58.50
16402;DHT22;8310;44.626;11.176;2023-05-27T12:34:18;30.20;59.90
16402;DHT22;8310;44.626;11.176;2023-05-27T12:36:46;30.10;60.50
16402;DHT22;8310;44.626;11.176;2023-05-27T12:39:14;30.10;60.80
16402;DHT22;8310;44.626;11.176;2023-05-27T12:41:42;30.10;61.10
16402;DHT22;8310;44.626;11.176;2023-05-27T12:44:09;30.20;61.00
16402;DHT22;8310;44.626;11.176;2023-05-27T12:46:37;30.20;60.20
16402;DHT22;8310;44.626;11.176;2023-05-27T12:49:04;30.20;60.80
16402;DHT22;8310;44.626;11.176;2023-05-27T12:51:34;30.20;60.10
16402;DHT22;8310;44.626;11.176;2023-05-27T12:54:01;30.20;60.70
16402;DHT22;8310;44.626;11.176;2023-05-27T12:56:28;30.20;56.90
16402;DHT22;8310;44.626;11.176;2023-05-27T12:58:55;30.20;59.90
16402;DHT22;8310;44.626;11.176;2023-05-27T13:01:23;30.10;60.30
16402;DHT22;8310;44.626;11.176;2023-05-27T13:03:50;30.20;60.70
16402;DHT22;8310;44.626;11.176;2023-05-27T13:06:18;30.30;61.00
16402;DHT22;8310;44.626;11.176;2023-05-27T13:08:47;30.40;57.20
16402;DHT22;8310;44.626;11.176;2023-05-27T13:11:15;30.40;59.50
16402;DHT22;8310;44.626;11.176;2023-05-27T13:13:42;30.30;59.80
16402;DHT22;8310;44.626;11.176;2023-05-27T13:16:10;30.30;60.40
16402;DHT22;8310;44.626;11.176;2023-05-27T13:18:37;30.30;60.70
16402;DHT22;8310;44.626;11.176;2023-05-27T13:21:05;30.40;60.60
16402;DHT22;8310;44.626;11.176;2023-05-27T13:23:32;30.50;60.80
16402;DHT22;8310;44.626;11.176;2023-05-27T13:26:01;30.60;60.90
16402;DHT22;8310;44.626;11.176;2023-05-27T13:28:28;30.60;59.90
16402;DHT22;8310;44.626;11.176;2023-05-27T13:30:56;30.60;59.30
16402;DHT22;8310;44.626;11.176;2023-05-27T13:33:23;30.50;59.90
16402;DHT22;8310;44.626;11.176;2023-05-27T13:35:50;30.50;60.40
16402;DHT22;8310;44.626;11.176;2023-05-27T13:38:17;30.60;60.60
16402;DHT22;8310;44.626;11.176;2023-05-27T13:40:45;30.70;59.40
16402;DHT22;8310;44.626;11.176;2023-05-27T13:43:13;30.70;60.70
16402;DHT22;8310;44.626;11.176;2023-05-27T13:45:41;30.70;60.80
16402;DHT22;8310;44.626;11.176;2023-05-27T13:48:09;30.80;60.80
16402;DHT22;8310;44.626;11.176;2023-05-27T13:50:36;30.90;60.90
16402;DHT22;8310;44.626;11.176;2023-05-27T13:53:04;30.90;60.70
16402;DHT22;8310;44.626;11.176;2023-05-27T13:55:32;31.00;60.60
16402;DHT22;8310;44.626;11.176;2023-05-27T13:57:59;31.00;60.00
16402;DHT22;8310;44.626;11.176;2023-05-27T14:00:28;30.80;56.70
16402;DHT22;8310;44.626;11.176;2023-05-27T14:02:56;30.70;59.20
16402;DHT22;8310;44.626;11.176;2023-05-27T14:05:24;30.60;59.50
16402;DHT22;8310;44.626;11.176;2023-05-27T14:07:52;30.60;59.80
16402;DHT22;8310;44.626;11.176;2023-05-27T14:10:19;30.70;59.50
16402;DHT22;8310;44.626;11.176;2023-05-27T14:12:46;30.70;60.00
16402;DHT22;8310;44.626;11.176;2023-05-27T14:15:14;30.70;59.80
16402;DHT22;8310;44.626;11.176;2023-05-27T14:17:42;30.80;59.90
16402;DHT22;8310;44.626;11.176;2023-05-27T14:20:10;30.80;60.20
16402;DHT22;8310;44.626;11.176;2023-05-27T14:22:38;30.90;60.30
16402;DHT22;8310;44.626;11.176;2023-05-27T14:25:05;30.90;60.30
16402;DHT22;8310;44.626;11.176;2023-05-27T14:27:33;30.90;60.30
16402;DHT22;8310;44.626;11.176;2023-05-27T14:30:01;31.00;60.30
16402;DHT22;8310;44.626;11.176;2023-05-27T14:32:31;31.00;59.80
16402;DHT22;8310;44.626;11.176;2023-05-27T14:35:00;31.00;59.90
16402;DHT22;8310;44.626;11.176;2023-05-27T14:37:28;31.00;59.90
16402;DHT22;8310;44.626;11.176;2023-05-27T14:39:55;31.00;59.90
16402;DHT22;8310;44.626;11.176;2023-05-27T14:42:22;31.00;59.40
16402;DHT22;8310;44.626;11.176;2023-05-27T14:44:50;30.90;59.50
16402;DHT22;8310;44.626;11.176;2023-05-27T14:47:18;30.90;59.60
16402;DHT22;8310;44.626;11.176;2023-05-27T14:49:46;30.80;59.50
16402;DHT22;8310;44.626;11.176;2023-05-27T14:52:15;30.80;59.70
16402;DHT22;8310;44.626;11.176;2023-05-27T14:54:42;30.80;59.80
16402;DHT22;8310;44.626;11.176;2023-05-27T14:57:09;30.90;59.20
16402;DHT22;8310;44.626;11.176;2023-05-27T14:59:36;30.90;58.10
16402;DHT22;8310;44.626;11.176;2023-05-27T15:02:03;30.90;59.50
16402;DHT22;8310;44.626;11.176;2023-05-27T15:04:30;30.80;59.40
16402;DHT22;8310;44.626;11.176;2023-05-27T15:06:58;30.70;59.40
16402;DHT22;8310;44.626;11.176;2023-05-27T15:09:27;30.70;59.50
16402;DHT22;8310;44.626;11.176;2023-05-27T15:11:57;30.70;60.10
16402;DHT22;8310;44.626;11.176;2023-05-27T15:14:24;30.70;59.40
16402;DHT22;8310;44.626;11.176;2023-05-27T15:16:52;30.70;59.50
16402;DHT22;8310;44.626;11.176;2023-05-27T15:19:19;30.70;59.60
16402;DHT22;8310;44.626;11.176;2023-05-27T15:21:46;30.70;59.50
16402;DHT22;8310;44.626;11.176;2023-05-27T15:24:13;30.60;58.80
16402;DHT22;8310;44.626;11.176;2023-05-27T15:26:42;30.60;58.30
16402;DHT22;8310;44.626;11.176;2023-05-27T15:29:10;30.50;58.80
16402;DHT22;8310;44.626;11.176;2023-05-27T15:31:37;30.40;59.00
16402;DHT22;8310;44.626;11.176;2023-05-27T15:34:04;30.40;59.10
16402;DHT22;8310;44.626;11.176;2023-05-27T15:36:32;30.40;59.10
16402;DHT22;8310;44.626;11.176;2023-05-27T15:39:00;30.40;59.10